ARJ9734 ULLI-UMKK
Flight info
| Callsign | ARJ9734 |
|---|---|
| Flight time | N/A |
| Altitude | 36000 |
| Route | UTETA1A UTETA M60 ATLUM T561 LEDUN DCT ARANS DCT PIDIN DCT PISIM DCT PIRUX DCT PIVAX DCT KEDUX/N0452F350 DCT OTVOV DCT TURIP TURIP3G |
| Aircraft | A320/M-SDE3FGHIRWY/LB1 |
Departure
| Time | 2026-05-01 13:52 |
|---|---|
| Airport | Pulkovo Airport (ULLI) |
Arrival
| Time | N/A |
|---|---|
| Airport | Khrabrovo Airport (UMKK) |
| Time | Latitude | Longitude | Altitude | Speed | Heading |
|---|---|---|---|---|---|
| 2026-05-01 13:32 | 59.79898 | 30.26340 | 84 ft | 0 kts | 286° |
| 2026-05-01 13:45 | 59.79903 | 30.26304 | 85 ft | 9 kts | 286° |
| 2026-05-01 13:45 | 59.79961 | 30.26232 | 81 ft | 14 kts | 17° |
| 2026-05-01 13:45 | 59.80065 | 30.26296 | 77 ft | 19 kts | 16° |
| 2026-05-01 13:46 | 59.80194 | 30.26369 | 77 ft | 23 kts | 16° |
| 2026-05-01 13:46 | 59.80367 | 30.26443 | 70 ft | 27 kts | 7° |
| 2026-05-01 13:46 | 59.80449 | 30.26603 | 75 ft | 18 kts | 107° |
| 2026-05-01 13:46 | 59.80400 | 30.26856 | 70 ft | 22 kts | 107° |
| 2026-05-01 13:47 | 59.80352 | 30.27175 | 75 ft | 26 kts | 107° |
| 2026-05-01 13:47 | 59.80296 | 30.27549 | 72 ft | 30 kts | 106° |
| 2026-05-01 13:47 | 59.80233 | 30.27973 | 72 ft | 34 kts | 107° |
| 2026-05-01 13:47 | 59.80162 | 30.28442 | 73 ft | 37 kts | 107° |
| 2026-05-01 13:48 | 59.80093 | 30.28912 | 71 ft | 35 kts | 106° |
| 2026-05-01 13:48 | 59.80022 | 30.29392 | 71 ft | 38 kts | 106° |
| 2026-05-01 13:48 | 59.79955 | 30.29840 | 70 ft | 31 kts | 107° |
| 2026-05-01 13:48 | 59.79989 | 30.30127 | 68 ft | 22 kts | 45° |
| 2026-05-01 13:49 | 59.80014 | 30.30182 | 73 ft | 11 kts | 50° |
| 2026-05-01 13:49 | 59.80122 | 30.30235 | 70 ft | 21 kts | 321° |
| 2026-05-01 13:49 | 59.80143 | 30.30136 | 71 ft | 2 kts | 285° |
| 2026-05-01 13:49 | 59.80143 | 30.30132 | 71 ft | 0 kts | 285° |
| 2026-05-01 13:50 | 59.80144 | 30.30129 | 70 ft | 0 kts | 285° |
| 2026-05-01 13:50 | 59.80144 | 30.30125 | 69 ft | 0 kts | 285° |
| 2026-05-01 13:50 | 59.80145 | 30.30118 | 65 ft | 1 kts | 285° |
| 2026-05-01 13:50 | 59.80146 | 30.30111 | 65 ft | 0 kts | 285° |
| 2026-05-01 13:51 | 59.80146 | 30.30109 | 66 ft | 0 kts | 285° |
| 2026-05-01 13:51 | 59.80147 | 30.30105 | 67 ft | 0 kts | 285° |
| 2026-05-01 13:51 | 59.80162 | 30.30000 | 69 ft | 33 kts | 286° |
| 2026-05-01 13:51 | 59.80298 | 30.29101 | 74 ft | 100 kts | 286° |
| 2026-05-01 13:52 | 59.80550 | 30.27403 | 70 ft | 153 kts | 287° |
| 2026-05-01 13:52 | 59.80867 | 30.25167 | 336 ft | 174 kts | 285° |
| 2026-05-01 13:52 | 59.81202 | 30.22762 | 766 ft | 192 kts | 287° |
| 2026-05-01 13:52 | 59.81609 | 30.20035 | 1313 ft | 219 kts | 286° |
| 2026-05-01 13:53 | 59.82068 | 30.16981 | 1982 ft | 241 kts | 286° |
| 2026-05-01 13:53 | 59.83051 | 30.10408 | 3708 ft | 252 kts | 286° |
| 2026-05-01 13:53 | 59.83547 | 30.07062 | 4636 ft | 254 kts | 287° |
| 2026-05-01 13:54 | 59.84049 | 30.03659 | 5536 ft | 257 kts | 287° |
| 2026-05-01 13:54 | 59.84540 | 30.00210 | 6439 ft | 261 kts | 283° |
| 2026-05-01 13:54 | 59.84684 | 29.96581 | 7236 ft | 267 kts | 269° |
| 2026-05-01 13:54 | 59.84356 | 29.92914 | 8030 ft | 273 kts | 260° |
| 2026-05-01 13:55 | 59.83922 | 29.89211 | 8820 ft | 277 kts | 261° |
| 2026-05-01 13:55 | 59.83479 | 29.85401 | 9619 ft | 282 kts | 261° |
| 2026-05-01 13:55 | 59.83040 | 29.81618 | 10346 ft | 287 kts | 262° |
| 2026-05-01 13:55 | 59.82570 | 29.77572 | 10683 ft | 308 kts | 261° |
| 2026-05-01 13:56 | 59.82072 | 29.73260 | 10866 ft | 331 kts | 261° |
| 2026-05-01 13:56 | 59.81536 | 29.68642 | 11021 ft | 354 kts | 261° |
| 2026-05-01 13:56 | 59.80962 | 29.63750 | 11293 ft | 370 kts | 261° |
| 2026-05-01 13:56 | 59.80367 | 29.58730 | 11858 ft | 377 kts | 261° |
| 2026-05-01 13:57 | 59.79760 | 29.53628 | 12493 ft | 381 kts | 261° |
| 2026-05-01 13:57 | 59.79354 | 29.50232 | 12908 ft | 383 kts | 261° |
| 2026-05-01 13:57 | 59.78520 | 29.43290 | 13752 ft | 389 kts | 261° |
| 2026-05-01 13:57 | 59.77894 | 29.38054 | 14317 ft | 393 kts | 262° |
| 2026-05-01 13:58 | 59.77259 | 29.32750 | 14893 ft | 396 kts | 262° |
| 2026-05-01 13:58 | 59.76617 | 29.27408 | 15470 ft | 399 kts | 262° |
| 2026-05-01 13:58 | 59.75968 | 29.22035 | 16041 ft | 403 kts | 262° |
| 2026-05-01 13:58 | 59.75309 | 29.16613 | 16613 ft | 406 kts | 262° |
| 2026-05-01 13:59 | 59.74640 | 29.11152 | 17179 ft | 409 kts | 262° |
| 2026-05-01 13:59 | 59.73974 | 29.05649 | 17734 ft | 411 kts | 264° |
| 2026-05-01 13:59 | 59.73610 | 29.00045 | 18257 ft | 408 kts | 274° |
| 2026-05-01 13:59 | 59.73677 | 28.94461 | 18728 ft | 406 kts | 279° |
| 2026-05-01 14:00 | 59.73839 | 28.88853 | 19186 ft | 409 kts | 279° |
| 2026-05-01 14:00 | 59.73993 | 28.83216 | 19617 ft | 411 kts | 279° |
| 2026-05-01 14:00 | 59.74143 | 28.77521 | 20045 ft | 414 kts | 278° |
| 2026-05-01 14:00 | 59.74287 | 28.71815 | 20483 ft | 416 kts | 278° |
| 2026-05-01 14:01 | 59.74429 | 28.66060 | 20893 ft | 419 kts | 278° |
| 2026-05-01 14:01 | 59.74569 | 28.60279 | 21298 ft | 421 kts | 278° |
| 2026-05-01 14:01 | 59.74708 | 28.54477 | 21695 ft | 423 kts | 278° |
| 2026-05-01 14:01 | 59.74846 | 28.48633 | 22073 ft | 425 kts | 278° |
| 2026-05-01 14:02 | 59.74984 | 28.42765 | 22452 ft | 427 kts | 278° |
| 2026-05-01 14:02 | 59.75122 | 28.36872 | 22816 ft | 429 kts | 278° |
| 2026-05-01 14:02 | 59.75257 | 28.30947 | 23168 ft | 431 kts | 278° |
| 2026-05-01 14:02 | 59.75392 | 28.24916 | 23524 ft | 433 kts | 278° |
| 2026-05-01 14:03 | 59.75520 | 28.19026 | 23839 ft | 435 kts | 278° |
| 2026-05-01 14:03 | 59.75649 | 28.13022 | 24139 ft | 436 kts | 278° |
| 2026-05-01 14:03 | 59.75773 | 28.07011 | 24421 ft | 438 kts | 278° |
| 2026-05-01 14:03 | 59.75894 | 28.00963 | 24704 ft | 439 kts | 277° |
| 2026-05-01 14:04 | 59.76012 | 27.94909 | 24970 ft | 440 kts | 277° |
| 2026-05-01 14:04 | 59.76129 | 27.88822 | 25229 ft | 442 kts | 277° |
| 2026-05-01 14:04 | 59.76243 | 27.82726 | 25487 ft | 443 kts | 277° |
| 2026-05-01 14:04 | 59.76319 | 27.78602 | 25653 ft | 443 kts | 277° |
| 2026-05-01 14:05 | 59.76478 | 27.70493 | 25970 ft | 444 kts | 279° |
| 2026-05-01 14:05 | 59.76903 | 27.64480 | 26202 ft | 439 kts | 287° |
| 2026-05-01 14:05 | 59.77691 | 27.58640 | 26420 ft | 437 kts | 290° |
| 2026-05-01 14:05 | 59.78512 | 27.52849 | 26720 ft | 436 kts | 290° |
| 2026-05-01 14:06 | 59.79329 | 27.47050 | 27042 ft | 435 kts | 290° |
| 2026-05-01 14:06 | 59.80133 | 27.41281 | 27366 ft | 433 kts | 290° |
| 2026-05-01 14:06 | 59.80928 | 27.35515 | 27687 ft | 432 kts | 290° |
| 2026-05-01 14:06 | 59.81715 | 27.29773 | 28021 ft | 431 kts | 290° |
| 2026-05-01 14:07 | 59.82504 | 27.24031 | 28350 ft | 429 kts | 290° |
| 2026-05-01 14:07 | 59.83289 | 27.18318 | 28682 ft | 428 kts | 290° |
| 2026-05-01 14:07 | 59.84069 | 27.12622 | 29018 ft | 427 kts | 290° |
| 2026-05-01 14:08 | 59.85613 | 27.01266 | 29691 ft | 424 kts | 290° |
| 2026-05-01 14:08 | 59.86377 | 26.95608 | 30024 ft | 423 kts | 290° |
| 2026-05-01 14:08 | 59.87138 | 26.89950 | 30338 ft | 422 kts | 290° |
| 2026-05-01 14:08 | 59.87891 | 26.84309 | 30619 ft | 421 kts | 290° |
| 2026-05-01 14:09 | 59.88644 | 26.78676 | 30897 ft | 420 kts | 290° |
| 2026-05-01 14:09 | 59.89140 | 26.74960 | 31076 ft | 420 kts | 290° |
| 2026-05-01 14:09 | 59.89888 | 26.69345 | 31349 ft | 419 kts | 290° |
| 2026-05-01 14:09 | 59.90631 | 26.63735 | 31630 ft | 418 kts | 290° |
| 2026-05-01 14:10 | 59.91371 | 26.58133 | 31899 ft | 417 kts | 290° |
| 2026-05-01 14:10 | 59.92118 | 26.52466 | 32098 ft | 417 kts | 290° |
| 2026-05-01 14:10 | 59.92858 | 26.46851 | 32138 ft | 420 kts | 290° |
| 2026-05-01 14:11 | 59.94332 | 26.35541 | 32138 ft | 422 kts | 289° |
| 2026-05-01 14:11 | 59.96185 | 26.18345 | 32140 ft | 430 kts | 277° |
| 2026-05-01 14:12 | 59.95339 | 26.06388 | 32137 ft | 447 kts | 257° |
| 2026-05-01 14:12 | 59.93328 | 25.94677 | 32132 ft | 442 kts | 263° |
| 2026-05-01 14:13 | 59.91970 | 25.82814 | 32131 ft | 442 kts | 263° |
| 2026-05-01 14:13 | 59.90588 | 25.70888 | 32134 ft | 442 kts | 263° |
| 2026-05-01 14:14 | 59.89177 | 25.58970 | 32131 ft | 442 kts | 263° |
| 2026-05-01 14:14 | 59.87749 | 25.47066 | 32133 ft | 442 kts | 263° |
| 2026-05-01 14:15 | 59.86305 | 25.35115 | 32137 ft | 441 kts | 262° |
| 2026-05-01 14:15 | 59.84853 | 25.23240 | 32131 ft | 441 kts | 262° |
| 2026-05-01 14:16 | 59.83405 | 25.11476 | 32136 ft | 441 kts | 262° |
| 2026-05-01 14:16 | 59.81930 | 24.99636 | 32135 ft | 441 kts | 262° |
| 2026-05-01 14:17 | 59.80484 | 24.88039 | 32137 ft | 441 kts | 262° |
| 2026-05-01 14:17 | 59.78998 | 24.76218 | 32141 ft | 441 kts | 262° |
| 2026-05-01 14:18 | 59.77497 | 24.64402 | 32143 ft | 441 kts | 262° |
| 2026-05-01 14:18 | 59.76231 | 24.54526 | 32141 ft | 440 kts | 261° |
| 2026-05-01 14:19 | 59.74439 | 24.40869 | 32138 ft | 441 kts | 260° |
| 2026-05-01 14:19 | 59.72705 | 24.29194 | 32143 ft | 442 kts | 259° |
| 2026-05-01 14:20 | 59.69960 | 24.11761 | 32142 ft | 441 kts | 258° |
| 2026-05-01 14:21 | 59.68169 | 24.00154 | 32145 ft | 441 kts | 259° |
| 2026-05-01 14:21 | 59.66386 | 23.88535 | 32142 ft | 441 kts | 259° |
| 2026-05-01 14:22 | 59.63679 | 23.71141 | 32141 ft | 441 kts | 258° |
| 2026-05-01 14:22 | 59.61857 | 23.59569 | 32156 ft | 441 kts | 258° |
| 2026-05-01 14:23 | 59.60029 | 23.48017 | 32149 ft | 441 kts | 258° |
| 2026-05-01 14:23 | 59.58187 | 23.36476 | 32154 ft | 441 kts | 258° |
| 2026-05-01 14:24 | 59.56337 | 23.24946 | 32160 ft | 441 kts | 258° |
| 2026-05-01 14:24 | 59.54258 | 23.13552 | 32157 ft | 446 kts | 250° |
| 2026-05-01 14:25 | 59.51604 | 23.02502 | 32165 ft | 446 kts | 250° |
| 2026-05-01 14:25 | 59.48944 | 22.91482 | 32164 ft | 446 kts | 250° |
| 2026-05-01 14:26 | 59.44954 | 22.74953 | 32160 ft | 446 kts | 250° |
| 2026-05-01 14:27 | 59.42276 | 22.63973 | 32162 ft | 446 kts | 250° |
| 2026-05-01 14:27 | 59.39579 | 22.53008 | 32162 ft | 446 kts | 250° |
| 2026-05-01 14:28 | 59.35527 | 22.36591 | 32162 ft | 446 kts | 249° |
| 2026-05-01 14:28 | 59.32808 | 22.25671 | 32161 ft | 446 kts | 249° |
| 2026-05-01 14:29 | 59.30554 | 22.16614 | 32161 ft | 446 kts | 249° |
| 2026-05-01 14:30 | 59.25150 | 21.95112 | 32165 ft | 446 kts | 249° |
| 2026-05-01 14:31 | 59.21017 | 21.78819 | 32166 ft | 447 kts | 249° |
| 2026-05-01 14:31 | 59.18253 | 21.67953 | 32167 ft | 447 kts | 249° |
| 2026-05-01 14:32 | 59.15477 | 21.57101 | 32171 ft | 447 kts | 248° |
| 2026-05-01 14:32 | 59.12691 | 21.46285 | 32171 ft | 447 kts | 248° |
| 2026-05-01 14:33 | 59.09883 | 21.35475 | 32169 ft | 447 kts | 248° |
| 2026-05-01 14:33 | 59.06906 | 21.24846 | 32173 ft | 452 kts | 239° |
| 2026-05-01 14:34 | 59.02358 | 21.16221 | 32170 ft | 466 kts | 218° |
| 2026-05-01 14:34 | 58.99486 | 21.13208 | 32169 ft | 473 kts | 207° |
| 2026-05-01 14:34 | 58.96370 | 21.11095 | 32168 ft | 476 kts | 202° |
| 2026-05-01 14:35 | 58.90075 | 21.07083 | 32169 ft | 476 kts | 202° |
| 2026-05-01 14:35 | 58.83774 | 21.03028 | 32173 ft | 477 kts | 202° |
| 2026-05-01 14:36 | 58.77479 | 20.98982 | 32179 ft | 478 kts | 202° |
| 2026-05-01 14:36 | 58.71165 | 20.94962 | 32178 ft | 478 kts | 202° |
| 2026-05-01 14:37 | 58.64844 | 20.90977 | 32180 ft | 478 kts | 202° |
| 2026-05-01 14:37 | 58.58522 | 20.87008 | 32179 ft | 478 kts | 202° |
| 2026-05-01 14:38 | 58.52207 | 20.83030 | 32185 ft | 478 kts | 202° |
| 2026-05-01 14:38 | 58.45879 | 20.79050 | 32189 ft | 479 kts | 202° |
| 2026-05-01 14:39 | 58.39545 | 20.75088 | 32191 ft | 479 kts | 202° |
| 2026-05-01 14:39 | 58.33208 | 20.71154 | 32189 ft | 479 kts | 201° |
| 2026-05-01 14:40 | 58.26869 | 20.67241 | 32192 ft | 480 kts | 201° |
| 2026-05-01 14:40 | 58.20516 | 20.63315 | 32195 ft | 480 kts | 201° |
| 2026-05-01 14:41 | 58.14161 | 20.59404 | 32198 ft | 481 kts | 201° |
| 2026-05-01 14:41 | 58.07797 | 20.55507 | 32198 ft | 481 kts | 201° |
| 2026-05-01 14:42 | 58.01415 | 20.51633 | 32214 ft | 481 kts | 201° |
| 2026-05-01 14:42 | 57.95037 | 20.47752 | 32207 ft | 482 kts | 201° |
| 2026-05-01 14:43 | 57.88653 | 20.43893 | 32211 ft | 482 kts | 201° |
| 2026-05-01 14:43 | 57.82266 | 20.40033 | 32212 ft | 482 kts | 201° |
| 2026-05-01 14:44 | 57.75883 | 20.36198 | 32213 ft | 483 kts | 201° |
| 2026-05-01 14:44 | 57.66273 | 20.30458 | 32216 ft | 483 kts | 200° |
| 2026-05-01 14:45 | 57.56667 | 20.24739 | 32222 ft | 484 kts | 200° |
| 2026-05-01 14:46 | 57.50240 | 20.20945 | 32225 ft | 484 kts | 200° |
| 2026-05-01 14:46 | 57.40599 | 20.15281 | 32228 ft | 485 kts | 200° |
| 2026-05-01 14:47 | 57.34171 | 20.11491 | 32226 ft | 485 kts | 200° |
| 2026-05-01 14:48 | 57.24525 | 20.05838 | 32228 ft | 485 kts | 200° |
| 2026-05-01 14:48 | 57.14872 | 20.00249 | 32230 ft | 485 kts | 199° |
| 2026-05-01 14:49 | 57.01986 | 19.92801 | 32237 ft | 486 kts | 199° |
| 2026-05-01 14:50 | 56.89998 | 19.86973 | 32247 ft | 488 kts | 194° |
| 2026-05-01 14:51 | 56.80061 | 19.82889 | 32254 ft | 488 kts | 194° |
| 2026-05-01 14:52 | 56.70162 | 19.78539 | 32259 ft | 488 kts | 195° |
| 2026-05-01 14:53 | 56.60223 | 19.74130 | 32263 ft | 488 kts | 195° |
| 2026-05-01 14:53 | 56.53670 | 19.71271 | 32257 ft | 488 kts | 194° |
| 2026-05-01 14:54 | 56.47063 | 19.68412 | 32258 ft | 488 kts | 194° |
| 2026-05-01 14:54 | 56.40470 | 19.65564 | 32258 ft | 488 kts | 194° |
| 2026-05-01 14:55 | 56.33865 | 19.62727 | 32265 ft | 487 kts | 194° |
| 2026-05-01 14:55 | 56.27238 | 19.60111 | 32264 ft | 488 kts | 187° |
| 2026-05-01 14:56 | 56.20484 | 19.60410 | 32260 ft | 487 kts | 168° |
| 2026-05-01 14:56 | 56.14142 | 19.64422 | 32262 ft | 483 kts | 149° |
| 2026-05-01 14:57 | 56.08265 | 19.70242 | 32261 ft | 483 kts | 149° |
| 2026-05-01 14:57 | 55.99419 | 19.78937 | 32270 ft | 484 kts | 148° |
| 2026-05-01 14:58 | 55.93523 | 19.84717 | 32279 ft | 484 kts | 148° |
| 2026-05-01 14:58 | 55.87614 | 19.90475 | 32284 ft | 484 kts | 148° |
| 2026-05-01 14:59 | 55.81699 | 19.96231 | 32279 ft | 485 kts | 148° |
| 2026-05-01 14:59 | 55.75782 | 20.01976 | 32290 ft | 484 kts | 148° |
| 2026-05-01 15:00 | 55.66902 | 20.10550 | 32295 ft | 484 kts | 148° |
| 2026-05-01 15:01 | 55.60979 | 20.16240 | 32309 ft | 484 kts | 148° |
| 2026-05-01 15:01 | 55.55056 | 20.21906 | 32323 ft | 483 kts | 148° |
| 2026-05-01 15:02 | 55.49178 | 20.27575 | 32331 ft | 479 kts | 144° |
| 2026-05-01 15:02 | 55.44024 | 20.34819 | 32322 ft | 472 kts | 132° |
| 2026-05-01 15:03 | 55.39255 | 20.42730 | 32318 ft | 471 kts | 133° |
| 2026-05-01 15:03 | 55.34555 | 20.50460 | 32321 ft | 471 kts | 133° |
| 2026-05-01 15:04 | 55.29496 | 20.57803 | 32312 ft | 477 kts | 144° |
| 2026-05-01 15:04 | 55.23824 | 20.63845 | 32314 ft | 477 kts | 145° |
| 2026-05-01 15:05 | 55.18152 | 20.69889 | 32312 ft | 477 kts | 144° |
| 2026-05-01 15:05 | 55.15514 | 20.73320 | 32316 ft | 468 kts | 128° |
| 2026-05-01 15:05 | 55.13697 | 20.77963 | 32312 ft | 452 kts | 107° |
| 2026-05-01 15:05 | 55.12984 | 20.83186 | 32305 ft | 435 kts | 86° |
| 2026-05-01 15:06 | 55.13393 | 20.88218 | 32298 ft | 420 kts | 65° |
| 2026-05-01 15:06 | 55.15371 | 20.97775 | 32267 ft | 429 kts | 81° |
| 2026-05-01 15:06 | 55.15194 | 21.03026 | 32274 ft | 440 kts | 97° |
| 2026-05-01 15:07 | 55.14167 | 21.08122 | 32270 ft | 453 kts | 115° |
| 2026-05-01 15:07 | 55.12148 | 21.12414 | 32271 ft | 466 kts | 136° |
| 2026-05-01 15:07 | 55.09525 | 21.15787 | 32281 ft | 471 kts | 142° |
| 2026-05-01 15:08 | 55.03656 | 21.20950 | 32268 ft | 483 kts | 167° |
| 2026-05-01 15:08 | 54.96962 | 21.22416 | 32275 ft | 486 kts | 171° |
| 2026-05-01 15:08 | 54.93577 | 21.22443 | 32261 ft | 489 kts | 189° |
| 2026-05-01 15:09 | 54.90324 | 21.20744 | 32274 ft | 489 kts | 201° |
| 2026-05-01 15:09 | 54.84207 | 21.15650 | 32261 ft | 486 kts | 223° |
| 2026-05-01 15:09 | 54.81853 | 21.11619 | 32297 ft | 465 kts | 234° |
| 2026-05-01 15:10 | 54.80309 | 21.06918 | 32298 ft | 436 kts | 257° |
| 2026-05-01 15:10 | 54.80590 | 20.97453 | 32299 ft | 367 kts | 306° |
| 2026-05-01 15:10 | 54.82164 | 20.94257 | 32303 ft | 339 kts | 332° |
| 2026-05-01 15:11 | 54.84279 | 20.92769 | 32303 ft | 325 kts | 356° |
| 2026-05-01 15:11 | 54.88786 | 20.92005 | 32298 ft | 326 kts | 357° |
| 2026-05-01 15:12 | 54.93302 | 20.91753 | 32301 ft | 323 kts | 9° |
| 2026-05-01 15:12 | 55.00064 | 20.91882 | 32303 ft | 326 kts | 354° |
| 2026-05-01 15:13 | 55.04432 | 20.83285 | 32301 ft | 369 kts | 276° |
| 2026-05-01 15:14 | 55.02447 | 20.74910 | 32303 ft | 397 kts | 224° |
| 2026-05-01 15:14 | 55.00104 | 20.72358 | 32303 ft | 402 kts | 200° |
| 2026-05-01 15:14 | 54.94662 | 20.70781 | 32303 ft | 397 kts | 165° |
| 2026-05-01 15:15 | 54.89192 | 20.71490 | 32299 ft | 402 kts | 197° |
| 2026-05-01 15:15 | 54.84990 | 20.65762 | 32301 ft | 389 kts | 249° |
| 2026-05-01 15:16 | 54.84675 | 20.57026 | 32300 ft | 355 kts | 302° |
| 2026-05-01 15:16 | 54.88080 | 20.51926 | 32303 ft | 325 kts | 354° |
| 2026-05-01 15:17 | 54.91601 | 20.53227 | 32301 ft | 321 kts | 37° |
| 2026-05-01 15:18 | 54.95530 | 20.62907 | 32303 ft | 333 kts | 57° |
| 2026-05-01 15:18 | 54.96741 | 20.66310 | 32298 ft | 328 kts | 46° |
| 2026-05-01 15:19 | 55.02932 | 20.70397 | 30312 ft | 351 kts | 352° |
| 2026-05-01 15:19 | 55.07870 | 20.70169 | 28243 ft | 366 kts | 16° |
| 2026-05-01 15:19 | 55.10194 | 20.72068 | 27203 ft | 376 kts | 34° |
| 2026-05-01 15:20 | 55.13426 | 20.79510 | 25136 ft | 403 kts | 62° |
| 2026-05-01 15:20 | 55.14556 | 20.84035 | 24113 ft | 410 kts | 62° |
| 2026-05-01 15:20 | 55.15657 | 20.88674 | 22948 ft | 418 kts | 66° |
| 2026-05-01 15:21 | 55.16116 | 20.93771 | 21757 ft | 437 kts | 87° |
| 2026-05-01 15:21 | 55.15587 | 20.99102 | 20552 ft | 452 kts | 99° |
| 2026-05-01 15:21 | 55.14592 | 21.04378 | 19366 ft | 461 kts | 106° |
| 2026-05-01 15:21 | 55.13016 | 21.09403 | 18402 ft | 473 kts | 125° |
| 2026-05-01 15:22 | 55.08015 | 21.16774 | 16840 ft | 468 kts | 140° |
| 2026-05-01 15:22 | 55.05310 | 21.19892 | 16076 ft | 468 kts | 152° |
| 2026-05-01 15:22 | 55.02203 | 21.21506 | 15372 ft | 467 kts | 169° |
| 2026-05-01 15:23 | 54.99001 | 21.22364 | 14618 ft | 463 kts | 171° |
| 2026-05-01 15:23 | 54.95816 | 21.23054 | 13896 ft | 459 kts | 177° |
| 2026-05-01 15:23 | 54.92687 | 21.22320 | 13203 ft | 452 kts | 198° |
| 2026-05-01 15:23 | 54.89748 | 21.20501 | 12457 ft | 447 kts | 202° |
| 2026-05-01 15:24 | 54.86873 | 21.18543 | 11751 ft | 441 kts | 204° |
| 2026-05-01 15:24 | 54.84293 | 21.15829 | 11092 ft | 429 kts | 225° |
| 2026-05-01 15:24 | 54.82332 | 21.12017 | 10381 ft | 421 kts | 234° |
| 2026-05-01 15:24 | 54.80767 | 21.07818 | 9629 ft | 409 kts | 251° |
| 2026-05-01 15:25 | 54.80236 | 21.03108 | 8901 ft | 393 kts | 275° |
| 2026-05-01 15:25 | 54.80823 | 20.98615 | 8171 ft | 378 kts | 298° |
| 2026-05-01 15:25 | 54.82386 | 20.95086 | 7404 ft | 367 kts | 322° |
| 2026-05-01 15:25 | 54.84620 | 20.93121 | 6646 ft | 359 kts | 347° |
| 2026-05-01 15:26 | 54.87047 | 20.92401 | 6092 ft | 349 kts | 352° |
| 2026-05-01 15:26 | 54.89411 | 20.91776 | 5615 ft | 338 kts | 351° |
| 2026-05-01 15:26 | 54.91701 | 20.91172 | 5152 ft | 328 kts | 351° |
| 2026-05-01 15:26 | 54.93923 | 20.90569 | 4687 ft | 319 kts | 348° |
| 2026-05-01 15:27 | 54.96024 | 20.89512 | 4245 ft | 311 kts | 340° |
| 2026-05-01 15:27 | 54.98013 | 20.88154 | 3793 ft | 304 kts | 338° |
| 2026-05-01 15:27 | 54.99959 | 20.86808 | 3344 ft | 298 kts | 338° |
| 2026-05-01 15:28 | 55.03616 | 20.84347 | 2470 ft | 288 kts | 338° |
| 2026-05-01 15:28 | 55.05437 | 20.83152 | 2024 ft | 284 kts | 338° |
| 2026-05-01 15:28 | 55.07274 | 20.81964 | 1557 ft | 279 kts | 338° |
| 2026-05-01 15:29 | 55.10764 | 20.79756 | 1297 ft | 248 kts | 338° |
| 2026-05-01 15:29 | 55.12330 | 20.78800 | 1303 ft | 229 kts | 338° |
| 2026-05-01 15:29 | 55.14699 | 20.77371 | 1300 ft | 209 kts | 338° |
| 2026-05-01 15:30 | 55.17435 | 20.75708 | 1307 ft | 208 kts | 338° |
| 2026-05-01 15:31 | 55.22981 | 20.73345 | 1300 ft | 203 kts | 15° |
| 2026-05-01 15:31 | 55.24801 | 20.76693 | 1326 ft | 182 kts | 75° |
| 2026-05-01 15:32 | 55.24399 | 20.80579 | 1297 ft | 159 kts | 128° |
| 2026-05-01 15:32 | 55.22641 | 20.82543 | 1298 ft | 149 kts | 175° |
| 2026-05-01 15:33 | 55.19582 | 20.83536 | 1303 ft | 150 kts | 174° |
| 2026-05-01 15:34 | 55.16507 | 20.84535 | 1304 ft | 150 kts | 174° |